sensor_id;sensor_type;location;lat;lon;timestamp;temperature;humidity
6260;DHT22;3163;51.516;4.000;2023-05-07T00:00:38;15.60;99.90
6260;DHT22;3163;51.516;4.000;2023-05-07T00:03:04;15.80;99.90
6260;DHT22;3163;51.516;4.000;2023-05-07T00:05:30;15.80;99.90
6260;DHT22;3163;51.516;4.000;2023-05-07T00:07:56;15.90;99.90
6260;DHT22;3163;51.516;4.000;2023-05-07T00:10:21;16.00;99.90
6260;DHT22;3163;51.516;4.000;2023-05-07T00:12:47;15.80;99.90
6260;DHT22;3163;51.516;4.000;2023-05-07T00:15:13;15.70;99.90
6260;DHT22;3163;51.516;4.000;2023-05-07T00:17:38;15.50;99.90
6260;DHT22;3163;51.516;4.000;2023-05-07T00:20:04;15.60;99.90
6260;DHT22;3163;51.516;4.000;2023-05-07T00:22:31;15.40;99.90
6260;DHT22;3163;51.516;4.000;2023-05-07T00:24:58;15.50;99.90
6260;DHT22;3163;51.516;4.000;2023-05-07T00:27:24;15.70;99.90
6260;DHT22;3163;51.516;4.000;2023-05-07T00:29:50;15.70;99.90
6260;DHT22;3163;51.516;4.000;2023-05-07T00:32:16;15.90;99.90
6260;DHT22;3163;51.516;4.000;2023-05-07T00:34:42;15.90;99.90
6260;DHT22;3163;51.516;4.000;2023-05-07T00:37:07;15.90;99.90
6260;DHT22;3163;51.516;4.000;2023-05-07T00:39:34;16.00;99.90
6260;DHT22;3163;51.516;4.000;2023-05-07T00:42:00;16.00;99.90
6260;DHT22;3163;51.516;4.000;2023-05-07T00:44:26;15.90;99.90
6260;DHT22;3163;51.516;4.000;2023-05-07T00:46:53;16.00;99.90
6260;DHT22;3163;51.516;4.000;2023-05-07T00:49:19;15.90;99.90
6260;DHT22;3163;51.516;4.000;2023-05-07T00:51:45;15.80;99.90
6260;DHT22;3163;51.516;4.000;2023-05-07T00:54:11;15.80;99.90
6260;DHT22;3163;51.516;4.000;2023-05-07T00:56:38;15.90;99.90
6260;DHT22;3163;51.516;4.000;2023-05-07T00:59:04;15.90;99.90
6260;DHT22;3163;51.516;4.000;2023-05-07T01:01:31;16.00;99.90
6260;DHT22;3163;51.516;4.000;2023-05-07T01:03:57;15.90;99.90
6260;DHT22;3163;51.516;4.000;2023-05-07T01:06:24;15.80;99.90
6260;DHT22;3163;51.516;4.000;2023-05-07T01:08:51;15.80;99.90
6260;DHT22;3163;51.516;4.000;2023-05-07T01:11:18;15.70;99.90
6260;DHT22;3163;51.516;4.000;2023-05-07T01:13:46;15.70;99.90
6260;DHT22;3163;51.516;4.000;2023-05-07T01:16:13;15.80;99.90
6260;DHT22;3163;51.516;4.000;2023-05-07T01:18:38;15.80;99.90
6260;DHT22;3163;51.516;4.000;2023-05-07T01:21:05;15.70;99.90
6260;DHT22;3163;51.516;4.000;2023-05-07T01:23:30;15.70;99.90
6260;DHT22;3163;51.516;4.000;2023-05-07T01:25:56;15.70;99.90
6260;DHT22;3163;51.516;4.000;2023-05-07T01:28:22;15.80;99.90
6260;DHT22;3163;51.516;4.000;2023-05-07T01:30:59;15.80;99.90
6260;DHT22;3163;51.516;4.000;2023-05-07T01:33:31;15.80;99.90
6260;DHT22;3163;51.516;4.000;2023-05-07T01:35:59;15.80;99.90
6260;DHT22;3163;51.516;4.000;2023-05-07T01:38:28;15.80;99.90
6260;DHT22;3163;51.516;4.000;2023-05-07T01:40:55;15.80;99.90
6260;DHT22;3163;51.516;4.000;2023-05-07T01:43:21;15.80;99.90
6260;DHT22;3163;51.516;4.000;2023-05-07T01:45:47;15.80;99.90
6260;DHT22;3163;51.516;4.000;2023-05-07T01:48:14;15.80;99.90
6260;DHT22;3163;51.516;4.000;2023-05-07T01:50:41;15.70;99.90
6260;DHT22;3163;51.516;4.000;2023-05-07T01:53:06;15.60;99.90
6260;DHT22;3163;51.516;4.000;2023-05-07T01:55:32;15.50;99.90
6260;DHT22;3163;51.516;4.000;2023-05-07T01:57:58;15.50;99.90
6260;DHT22;3163;51.516;4.000;2023-05-07T02:00:23;15.50;99.90
6260;DHT22;3163;51.516;4.000;2023-05-07T02:02:49;15.50;99.90
6260;DHT22;3163;51.516;4.000;2023-05-07T02:05:15;15.50;99.90
6260;DHT22;3163;51.516;4.000;2023-05-07T02:07:40;15.70;99.90
6260;DHT22;3163;51.516;4.000;2023-05-07T02:10:06;15.60;99.90
6260;DHT22;3163;51.516;4.000;2023-05-07T02:12:32;15.50;99.90
6260;DHT22;3163;51.516;4.000;2023-05-07T02:14:57;15.60;99.90
6260;DHT22;3163;51.516;4.000;2023-05-07T02:17:23;15.60;99.90
6260;DHT22;3163;51.516;4.000;2023-05-07T02:19:49;15.70;99.90
6260;DHT22;3163;51.516;4.000;2023-05-07T02:22:14;15.80;99.90
6260;DHT22;3163;51.516;4.000;2023-05-07T02:24:40;15.70;99.90
6260;DHT22;3163;51.516;4.000;2023-05-07T02:27:06;15.40;99.90
6260;DHT22;3163;51.516;4.000;2023-05-07T02:29:31;15.40;99.90
6260;DHT22;3163;51.516;4.000;2023-05-07T02:31:57;15.40;99.90
6260;DHT22;3163;51.516;4.000;2023-05-07T02:34:23;15.70;99.90
6260;DHT22;3163;51.516;4.000;2023-05-07T02:36:48;15.60;99.90
6260;DHT22;3163;51.516;4.000;2023-05-07T02:39:14;15.50;99.90
6260;DHT22;3163;51.516;4.000;2023-05-07T02:41:40;15.40;99.90
6260;DHT22;3163;51.516;4.000;2023-05-07T02:44:06;15.20;99.90
6260;DHT22;3163;51.516;4.000;2023-05-07T02:46:32;15.20;99.90
6260;DHT22;3163;51.516;4.000;2023-05-07T02:48:57;15.30;99.90
6260;DHT22;3163;51.516;4.000;2023-05-07T02:51:23;15.50;99.90
6260;DHT22;3163;51.516;4.000;2023-05-07T02:53:49;15.50;99.90
6260;DHT22;3163;51.516;4.000;2023-05-07T02:56:15;15.60;99.90
6260;DHT22;3163;51.516;4.000;2023-05-07T02:58:41;15.50;99.90
6260;DHT22;3163;51.516;4.000;2023-05-07T03:01:08;15.50;99.90
6260;DHT22;3163;51.516;4.000;2023-05-07T03:03:34;15.40;99.90
6260;DHT22;3163;51.516;4.000;2023-05-07T03:06:00;15.40;99.90
6260;DHT22;3163;51.516;4.000;2023-05-07T03:08:25;15.10;99.90
6260;DHT22;3163;51.516;4.000;2023-05-07T03:10:51;15.20;99.90
6260;DHT22;3163;51.516;4.000;2023-05-07T03:13:17;15.20;99.90
6260;DHT22;3163;51.516;4.000;2023-05-07T03:15:43;15.30;99.90
6260;DHT22;3163;51.516;4.000;2023-05-07T03:18:08;15.50;99.90
6260;DHT22;3163;51.516;4.000;2023-05-07T03:20:34;15.60;99.90
6260;DHT22;3163;51.516;4.000;2023-05-07T03:23:01;15.70;99.90
6260;DHT22;3163;51.516;4.000;2023-05-07T03:25:28;15.70;99.90
6260;DHT22;3163;51.516;4.000;2023-05-07T03:27:55;15.70;99.90
6260;DHT22;3163;51.516;4.000;2023-05-07T03:30:21;15.60;99.90
6260;DHT22;3163;51.516;4.000;2023-05-07T03:32:47;15.70;99.90
6260;DHT22;3163;51.516;4.000;2023-05-07T03:35:12;15.70;99.90
6260;DHT22;3163;51.516;4.000;2023-05-07T03:37:38;15.70;99.90
6260;DHT22;3163;51.516;4.000;2023-05-07T03:40:05;15.80;99.90
6260;DHT22;3163;51.516;4.000;2023-05-07T03:42:31;15.70;99.90
6260;DHT22;3163;51.516;4.000;2023-05-07T03:44:56;15.70;99.90
6260;DHT22;3163;51.516;4.000;2023-05-07T03:47:22;15.80;99.90
6260;DHT22;3163;51.516;4.000;2023-05-07T03:49:47;15.80;99.90
6260;DHT22;3163;51.516;4.000;2023-05-07T03:52:14;15.80;99.90
6260;DHT22;3163;51.516;4.000;2023-05-07T03:54:40;15.80;99.90
6260;DHT22;3163;51.516;4.000;2023-05-07T03:57:06;15.60;99.90
6260;DHT22;3163;51.516;4.000;2023-05-07T03:59:31;15.40;99.90
6260;DHT22;3163;51.516;4.000;2023-05-07T04:01:57;15.50;99.90
6260;DHT22;3163;51.516;4.000;2023-05-07T04:04:23;15.50;99.90
6260;DHT22;3163;51.516;4.000;2023-05-07T04:06:48;15.60;99.90
6260;DHT22;3163;51.516;4.000;2023-05-07T04:09:14;15.50;99.90
6260;DHT22;3163;51.516;4.000;2023-05-07T04:11:40;15.40;99.90
6260;DHT22;3163;51.516;4.000;2023-05-07T04:14:06;15.30;99.90
6260;DHT22;3163;51.516;4.000;2023-05-07T04:16:31;15.30;99.90
6260;DHT22;3163;51.516;4.000;2023-05-07T04:18:57;15.40;99.90
6260;DHT22;3163;51.516;4.000;2023-05-07T04:21:23;15.40;99.90
6260;DHT22;3163;51.516;4.000;2023-05-07T04:23:48;15.30;99.90
6260;DHT22;3163;51.516;4.000;2023-05-07T04:26:15;15.40;99.90
6260;DHT22;3163;51.516;4.000;2023-05-07T04:28:41;15.30;99.90
6260;DHT22;3163;51.516;4.000;2023-05-07T04:31:07;15.30;99.90
6260;DHT22;3163;51.516;4.000;2023-05-07T04:33:33;15.20;99.90
6260;DHT22;3163;51.516;4.000;2023-05-07T04:36:01;15.40;99.90
6260;DHT22;3163;51.516;4.000;2023-05-07T04:38:29;15.30;99.90
6260;DHT22;3163;51.516;4.000;2023-05-07T04:40:55;15.50;99.90
6260;DHT22;3163;51.516;4.000;2023-05-07T04:43:22;15.40;99.90
6260;DHT22;3163;51.516;4.000;2023-05-07T04:45:47;15.60;99.90
6260;DHT22;3163;51.516;4.000;2023-05-07T04:48:14;15.60;99.90
6260;DHT22;3163;51.516;4.000;2023-05-07T04:50:41;15.60;99.90
6260;DHT22;3163;51.516;4.000;2023-05-07T04:53:07;15.60;99.90
6260;DHT22;3163;51.516;4.000;2023-05-07T04:55:32;15.70;99.90
6260;DHT22;3163;51.516;4.000;2023-05-07T04:57:58;15.70;99.90
6260;DHT22;3163;51.516;4.000;2023-05-07T05:00:23;16.20;99.90
6260;DHT22;3163;51.516;4.000;2023-05-07T05:02:50;16.20;99.90
6260;DHT22;3163;51.516;4.000;2023-05-07T05:05:16;16.30;99.90
6260;DHT22;3163;51.516;4.000;2023-05-07T05:07:41;16.40;99.90
6260;DHT22;3163;51.516;4.000;2023-05-07T05:10:07;16.40;99.90
6260;DHT22;3163;51.516;4.000;2023-05-07T05:12:32;16.40;99.90
6260;DHT22;3163;51.516;4.000;2023-05-07T05:14:58;16.30;99.90
6260;DHT22;3163;51.516;4.000;2023-05-07T05:17:24;16.20;99.90
6260;DHT22;3163;51.516;4.000;2023-05-07T05:19:49;16.30;99.90
6260;DHT22;3163;51.516;4.000;2023-05-07T05:22:15;16.30;99.90
6260;DHT22;3163;51.516;4.000;2023-05-07T05:24:40;16.40;99.90
6260;DHT22;3163;51.516;4.000;2023-05-07T05:27:06;16.40;99.90
6260;DHT22;3163;51.516;4.000;2023-05-07T05:29:31;16.40;99.90
6260;DHT22;3163;51.516;4.000;2023-05-07T05:31:57;16.40;99.90
6260;DHT22;3163;51.516;4.000;2023-05-07T05:34:23;16.50;99.90
6260;DHT22;3163;51.516;4.000;2023-05-07T05:36:48;16.50;99.90
6260;DHT22;3163;51.516;4.000;2023-05-07T05:39:14;16.50;99.90
6260;DHT22;3163;51.516;4.000;2023-05-07T05:41:40;16.50;99.90
6260;DHT22;3163;51.516;4.000;2023-05-07T05:44:06;16.50;99.90
6260;DHT22;3163;51.516;4.000;2023-05-07T05:46:31;16.50;99.90
6260;DHT22;3163;51.516;4.000;2023-05-07T05:48:57;16.50;99.90
6260;DHT22;3163;51.516;4.000;2023-05-07T05:51:22;16.50;99.90
6260;DHT22;3163;51.516;4.000;2023-05-07T05:53:48;16.70;99.90
6260;DHT22;3163;51.516;4.000;2023-05-07T05:56:15;16.60;99.90
6260;DHT22;3163;51.516;4.000;2023-05-07T05:58:41;16.70;99.90
6260;DHT22;3163;51.516;4.000;2023-05-07T06:01:06;16.70;99.90
6260;DHT22;3163;51.516;4.000;2023-05-07T06:03:32;16.60;99.90
6260;DHT22;3163;51.516;4.000;2023-05-07T06:05:58;16.80;99.90
6260;DHT22;3163;51.516;4.000;2023-05-07T06:08:25;16.60;99.90
6260;DHT22;3163;51.516;4.000;2023-05-07T06:10:51;16.50;99.90
6260;DHT22;3163;51.516;4.000;2023-05-07T06:13:16;16.70;99.90
6260;DHT22;3163;51.516;4.000;2023-05-07T06:15:42;16.90;99.90
6260;DHT22;3163;51.516;4.000;2023-05-07T06:18:07;16.60;99.90
6260;DHT22;3163;51.516;4.000;2023-05-07T06:20:33;16.50;99.90
6260;DHT22;3163;51.516;4.000;2023-05-07T06:22:59;16.30;99.90
6260;DHT22;3163;51.516;4.000;2023-05-07T06:25:24;16.50;99.90
6260;DHT22;3163;51.516;4.000;2023-05-07T06:27:50;16.60;99.90
6260;DHT22;3163;51.516;4.000;2023-05-07T06:30:15;16.50;99.90
6260;DHT22;3163;51.516;4.000;2023-05-07T06:32:41;16.70;99.90
6260;DHT22;3163;51.516;4.000;2023-05-07T06:35:07;17.00;99.90
6260;DHT22;3163;51.516;4.000;2023-05-07T06:37:33;17.30;99.90
6260;DHT22;3163;51.516;4.000;2023-05-07T06:39:58;17.30;99.90
6260;DHT22;3163;51.516;4.000;2023-05-07T06:42:24;17.40;99.90
6260;DHT22;3163;51.516;4.000;2023-05-07T06:44:49;17.60;99.90
6260;DHT22;3163;51.516;4.000;2023-05-07T06:47:15;17.80;99.90
6260;DHT22;3163;51.516;4.000;2023-05-07T06:49:41;17.90;99.90
6260;DHT22;3163;51.516;4.000;2023-05-07T06:52:06;17.80;99.90
6260;DHT22;3163;51.516;4.000;2023-05-07T06:54:32;17.70;99.90
6260;DHT22;3163;51.516;4.000;2023-05-07T06:56:58;17.40;99.90
6260;DHT22;3163;51.516;4.000;2023-05-07T06:59:23;17.50;99.90
6260;DHT22;3163;51.516;4.000;2023-05-07T07:01:49;17.40;99.90
6260;DHT22;3163;51.516;4.000;2023-05-07T07:04:15;17.50;99.90
6260;DHT22;3163;51.516;4.000;2023-05-07T07:06:40;17.50;99.90
6260;DHT22;3163;51.516;4.000;2023-05-07T07:09:06;17.40;99.90
6260;DHT22;3163;51.516;4.000;2023-05-07T07:11:32;17.40;99.90
6260;DHT22;3163;51.516;4.000;2023-05-07T07:13:57;17.20;99.90
6260;DHT22;3163;51.516;4.000;2023-05-07T07:16:24;17.50;99.90
6260;DHT22;3163;51.516;4.000;2023-05-07T07:18:49;17.80;99.90
6260;DHT22;3163;51.516;4.000;2023-05-07T07:21:15;17.90;99.90
6260;DHT22;3163;51.516;4.000;2023-05-07T07:23:41;18.00;99.90
6260;DHT22;3163;51.516;4.000;2023-05-07T07:26:07;18.10;99.90
6260;DHT22;3163;51.516;4.000;2023-05-07T07:28:32;18.20;99.90
6260;DHT22;3163;51.516;4.000;2023-05-07T07:30:58;18.10;99.90
6260;DHT22;3163;51.516;4.000;2023-05-07T07:33:23;18.20;99.90
6260;DHT22;3163;51.516;4.000;2023-05-07T07:35:49;18.40;99.90
6260;DHT22;3163;51.516;4.000;2023-05-07T07:38:15;18.40;99.90
6260;DHT22;3163;51.516;4.000;2023-05-07T07:40:40;18.40;99.90
6260;DHT22;3163;51.516;4.000;2023-05-07T07:43:06;18.50;99.90
6260;DHT22;3163;51.516;4.000;2023-05-07T07:45:31;18.60;99.90
6260;DHT22;3163;51.516;4.000;2023-05-07T07:47:57;18.40;99.90
6260;DHT22;3163;51.516;4.000;2023-05-07T07:50:23;18.40;99.90
6260;DHT22;3163;51.516;4.000;2023-05-07T07:52:48;18.60;99.90
6260;DHT22;3163;51.516;4.000;2023-05-07T07:55:14;18.70;99.90
6260;DHT22;3163;51.516;4.000;2023-05-07T07:57:46;18.80;99.90
6260;DHT22;3163;51.516;4.000;2023-05-07T08:00:12;18.80;99.90
6260;DHT22;3163;51.516;4.000;2023-05-07T08:02:37;18.90;99.90
6260;DHT22;3163;51.516;4.000;2023-05-07T08:05:03;18.90;99.90
6260;DHT22;3163;51.516;4.000;2023-05-07T08:07:29;19.00;99.90
6260;DHT22;3163;51.516;4.000;2023-05-07T08:09:55;19.10;99.90
6260;DHT22;3163;51.516;4.000;2023-05-07T08:12:20;19.10;99.90
6260;DHT22;3163;51.516;4.000;2023-05-07T08:14:46;19.10;99.90
6260;DHT22;3163;51.516;4.000;2023-05-07T08:17:12;19.00;99.90
6260;DHT22;3163;51.516;4.000;2023-05-07T08:19:38;19.10;99.90
6260;DHT22;3163;51.516;4.000;2023-05-07T08:22:04;19.10;99.90
6260;DHT22;3163;51.516;4.000;2023-05-07T08:24:31;19.20;99.90
6260;DHT22;3163;51.516;4.000;2023-05-07T08:26:56;19.30;99.90
6260;DHT22;3163;51.516;4.000;2023-05-07T08:29:22;19.40;99.90
6260;DHT22;3163;51.516;4.000;2023-05-07T08:31:48;19.40;99.90
6260;DHT22;3163;51.516;4.000;2023-05-07T08:34:14;19.40;99.90
6260;DHT22;3163;51.516;4.000;2023-05-07T08:36:40;19.40;99.90
6260;DHT22;3163;51.516;4.000;2023-05-07T08:39:07;19.30;99.90
6260;DHT22;3163;51.516;4.000;2023-05-07T08:41:32;19.30;99.90
6260;DHT22;3163;51.516;4.000;2023-05-07T08:43:59;19.40;99.90
6260;DHT22;3163;51.516;4.000;2023-05-07T08:46:31;19.40;99.90
6260;DHT22;3163;51.516;4.000;2023-05-07T08:48:56;19.50;99.90
6260;DHT22;3163;51.516;4.000;2023-05-07T08:51:22;19.50;99.90
6260;DHT22;3163;51.516;4.000;2023-05-07T08:53:49;19.60;99.90
6260;DHT22;3163;51.516;4.000;2023-05-07T08:56:16;19.70;99.90
6260;DHT22;3163;51.516;4.000;2023-05-07T08:58:44;19.70;99.90
6260;DHT22;3163;51.516;4.000;2023-05-07T09:01:14;19.80;99.90
6260;DHT22;3163;51.516;4.000;2023-05-07T09:03:40;19.90;99.90
6260;DHT22;3163;51.516;4.000;2023-05-07T09:06:06;19.90;99.90
6260;DHT22;3163;51.516;4.000;2023-05-07T09:08:35;20.00;99.90
6260;DHT22;3163;51.516;4.000;2023-05-07T09:11:01;20.10;99.90
6260;DHT22;3163;51.516;4.000;2023-05-07T09:13:28;20.10;99.90
6260;DHT22;3163;51.516;4.000;2023-05-07T09:15:53;20.20;99.90
6260;DHT22;3163;51.516;4.000;2023-05-07T09:18:19;20.30;99.90
6260;DHT22;3163;51.516;4.000;2023-05-07T09:20:44;20.30;99.90
6260;DHT22;3163;51.516;4.000;2023-05-07T09:23:10;20.40;99.90
6260;DHT22;3163;51.516;4.000;2023-05-07T09:25:36;20.40;99.90
6260;DHT22;3163;51.516;4.000;2023-05-07T09:28:03;20.30;99.90
6260;DHT22;3163;51.516;4.000;2023-05-07T09:30:30;20.30;99.90
6260;DHT22;3163;51.516;4.000;2023-05-07T09:32:58;20.30;99.90
6260;DHT22;3163;51.516;4.000;2023-05-07T09:35:25;20.40;99.90
6260;DHT22;3163;51.516;4.000;2023-05-07T09:38:00;20.40;99.90
6260;DHT22;3163;51.516;4.000;2023-05-07T09:40:27;20.30;99.90
6260;DHT22;3163;51.516;4.000;2023-05-07T09:42:53;20.50;99.90
6260;DHT22;3163;51.516;4.000;2023-05-07T09:45:26;20.50;99.90
6260;DHT22;3163;51.516;4.000;2023-05-07T09:47:55;20.60;99.90
6260;DHT22;3163;51.516;4.000;2023-05-07T09:50:27;20.60;99.90
6260;DHT22;3163;51.516;4.000;2023-05-07T09:52:55;20.60;99.90
6260;DHT22;3163;51.516;4.000;2023-05-07T09:55:21;20.50;99.90
6260;DHT22;3163;51.516;4.000;2023-05-07T09:57:50;20.40;99.90
6260;DHT22;3163;51.516;4.000;2023-05-07T10:00:18;20.40;99.90
6260;DHT22;3163;51.516;4.000;2023-05-07T10:02:46;20.40;99.90
6260;DHT22;3163;51.516;4.000;2023-05-07T10:05:14;20.50;99.90
6260;DHT22;3163;51.516;4.000;2023-05-07T10:07:41;20.50;99.90
6260;DHT22;3163;51.516;4.000;2023-05-07T10:10:07;20.60;99.90
6260;DHT22;3163;51.516;4.000;2023-05-07T10:12:33;20.60;99.90
6260;DHT22;3163;51.516;4.000;2023-05-07T10:15:08;20.70;99.90
6260;DHT22;3163;51.516;4.000;2023-05-07T10:17:36;20.70;99.90
6260;DHT22;3163;51.516;4.000;2023-05-07T10:20:02;20.80;99.90
6260;DHT22;3163;51.516;4.000;2023-05-07T10:22:52;20.80;99.90
6260;DHT22;3163;51.516;4.000;2023-05-07T10:25:30;20.60;99.90
6260;DHT22;3163;51.516;4.000;2023-05-07T10:27:59;20.70;99.90
6260;DHT22;3163;51.516;4.000;2023-05-07T10:33:11;21.00;99.90
6260;DHT22;3163;51.516;4.000;2023-05-07T10:35:41;21.00;99.90
6260;DHT22;3163;51.516;4.000;2023-05-07T10:38:08;21.10;99.90
6260;DHT22;3163;51.516;4.000;2023-05-07T10:40:34;21.10;99.90
6260;DHT22;3163;51.516;4.000;2023-05-07T10:43:04;21.10;99.90
6260;DHT22;3163;51.516;4.000;2023-05-07T10:45:33;21.00;99.90
6260;DHT22;3163;51.516;4.000;2023-05-07T10:48:12;21.00;99.90
6260;DHT22;3163;51.516;4.000;2023-05-07T10:50:43;21.00;99.90
6260;DHT22;3163;51.516;4.000;2023-05-07T10:55:44;20.70;99.90
6260;DHT22;3163;51.516;4.000;2023-05-07T10:58:29;20.70;99.90
6260;DHT22;3163;51.516;4.000;2023-05-07T11:00:59;20.80;99.90
6260;DHT22;3163;51.516;4.000;2023-05-07T11:03:26;20.80;99.90
6260;DHT22;3163;51.516;4.000;2023-05-07T11:06:11;21.00;99.90
6260;DHT22;3163;51.516;4.000;2023-05-07T11:08:54;21.00;99.90
6260;DHT22;3163;51.516;4.000;2023-05-07T11:11:49;21.10;99.90
6260;DHT22;3163;51.516;4.000;2023-05-07T11:17:06;20.90;99.90
6260;DHT22;3163;51.516;4.000;2023-05-07T11:19:52;20.80;99.90
6260;DHT22;3163;51.516;4.000;2023-05-07T11:24:56;20.60;99.90
6260;DHT22;3163;51.516;4.000;2023-05-07T11:27:26;20.50;99.90
6260;DHT22;3163;51.516;4.000;2023-05-07T11:29:52;20.70;99.90
6260;DHT22;3163;51.516;4.000;2023-05-07T11:34:53;20.80;99.90
6260;DHT22;3163;51.516;4.000;2023-05-07T11:37:23;20.90;99.90
6260;DHT22;3163;51.516;4.000;2023-05-07T11:39:49;20.80;99.90
6260;DHT22;3163;51.516;4.000;2023-05-07T11:42:32;20.90;99.90
6260;DHT22;3163;51.516;4.000;2023-05-07T11:44:59;20.60;99.90
6260;DHT22;3163;51.516;4.000;2023-05-07T11:47:25;20.50;99.90
6260;DHT22;3163;51.516;4.000;2023-05-07T11:49:53;20.50;99.90
6260;DHT22;3163;51.516;4.000;2023-05-07T11:52:20;20.70;99.90
6260;DHT22;3163;51.516;4.000;2023-05-07T11:54:56;20.70;99.90
6260;DHT22;3163;51.516;4.000;2023-05-07T11:57:23;20.80;99.90
6260;DHT22;3163;51.516;4.000;2023-05-07T12:00:01;20.80;99.90
6260;DHT22;3163;51.516;4.000;2023-05-07T12:02:29;20.90;99.90
6260;DHT22;3163;51.516;4.000;2023-05-07T12:04:55;20.80;99.90
6260;DHT22;3163;51.516;4.000;2023-05-07T12:07:21;20.80;99.90
6260;DHT22;3163;51.516;4.000;2023-05-07T12:09:46;20.80;99.90
6260;DHT22;3163;51.516;4.000;2023-05-07T12:12:13;20.70;99.90
6260;DHT22;3163;51.516;4.000;2023-05-07T12:14:44;20.60;99.90
6260;DHT22;3163;51.516;4.000;2023-05-07T12:17:11;20.70;99.90
6260;DHT22;3163;51.516;4.000;2023-05-07T12:19:38;20.70;99.90
6260;DHT22;3163;51.516;4.000;2023-05-07T12:22:04;20.60;99.90
6260;DHT22;3163;51.516;4.000;2023-05-07T12:24:47;20.60;99.90
6260;DHT22;3163;51.516;4.000;2023-05-07T12:27:16;20.70;99.90
6260;DHT22;3163;51.516;4.000;2023-05-07T12:29:46;20.50;99.90
6260;DHT22;3163;51.516;4.000;2023-05-07T12:32:19;20.60;99.90
6260;DHT22;3163;51.516;4.000;2023-05-07T12:34:46;20.70;99.90
6260;DHT22;3163;51.516;4.000;2023-05-07T12:37:12;20.60;99.90
6260;DHT22;3163;51.516;4.000;2023-05-07T12:39:44;20.50;99.90
6260;DHT22;3163;51.516;4.000;2023-05-07T12:42:15;20.60;99.90
6260;DHT22;3163;51.516;4.000;2023-05-07T12:44:41;20.70;99.90
6260;DHT22;3163;51.516;4.000;2023-05-07T12:47:07;20.80;99.90
6260;DHT22;3163;51.516;4.000;2023-05-07T12:49:34;20.90;99.90
6260;DHT22;3163;51.516;4.000;2023-05-07T12:52:03;21.10;99.90
6260;DHT22;3163;51.516;4.000;2023-05-07T12:54:32;21.20;99.90
6260;DHT22;3163;51.516;4.000;2023-05-07T12:57:03;21.40;99.90
6260;DHT22;3163;51.516;4.000;2023-05-07T12:59:41;21.50;99.90
6260;DHT22;3163;51.516;4.000;2023-05-07T13:02:08;21.70;99.90
6260;DHT22;3163;51.516;4.000;2023-05-07T13:04:34;21.80;99.90
6260;DHT22;3163;51.516;4.000;2023-05-07T13:07:01;21.80;99.90
6260;DHT22;3163;51.516;4.000;2023-05-07T13:09:26;21.80;99.90
6260;DHT22;3163;51.516;4.000;2023-05-07T13:11:54;21.50;99.90
6260;DHT22;3163;51.516;4.000;2023-05-07T13:14:20;21.40;99.90
6260;DHT22;3163;51.516;4.000;2023-05-07T13:16:48;21.40;99.90
6260;DHT22;3163;51.516;4.000;2023-05-07T13:19:14;21.40;99.90
6260;DHT22;3163;51.516;4.000;2023-05-07T13:21:40;21.40;99.90
6260;DHT22;3163;51.516;4.000;2023-05-07T13:24:06;21.40;99.90
6260;DHT22;3163;51.516;4.000;2023-05-07T13:26:31;21.40;99.90
6260;DHT22;3163;51.516;4.000;2023-05-07T13:28:57;21.40;99.90
6260;DHT22;3163;51.516;4.000;2023-05-07T13:31:23;21.20;99.90
6260;DHT22;3163;51.516;4.000;2023-05-07T13:33:49;20.80;99.90
6260;DHT22;3163;51.516;4.000;2023-05-07T13:36:15;20.70;99.90
6260;DHT22;3163;51.516;4.000;2023-05-07T13:38:40;20.90;99.90
6260;DHT22;3163;51.516;4.000;2023-05-07T13:41:06;21.00;99.90
6260;DHT22;3163;51.516;4.000;2023-05-07T13:43:32;21.00;99.90
6260;DHT22;3163;51.516;4.000;2023-05-07T13:45:59;21.00;99.90
6260;DHT22;3163;51.516;4.000;2023-05-07T13:48:24;20.90;99.90
6260;DHT22;3163;51.516;4.000;2023-05-07T13:50:50;20.90;99.90
6260;DHT22;3163;51.516;4.000;2023-05-07T13:53:16;21.00;99.90
6260;DHT22;3163;51.516;4.000;2023-05-07T13:55:43;21.00;99.90
6260;DHT22;3163;51.516;4.000;2023-05-07T13:58:09;21.00;99.90
6260;DHT22;3163;51.516;4.000;2023-05-07T14:00:35;20.80;99.90
6260;DHT22;3163;51.516;4.000;2023-05-07T14:03:01;20.70;99.90
6260;DHT22;3163;51.516;4.000;2023-05-07T14:05:26;20.80;99.90
6260;DHT22;3163;51.516;4.000;2023-05-07T14:07:54;21.00;99.90
6260;DHT22;3163;51.516;4.000;2023-05-07T14:10:20;21.00;99.90
6260;DHT22;3163;51.516;4.000;2023-05-07T14:12:46;21.00;99.90
6260;DHT22;3163;51.516;4.000;2023-05-07T14:15:12;21.00;99.90
6260;DHT22;3163;51.516;4.000;2023-05-07T14:17:38;21.00;99.90
6260;DHT22;3163;51.516;4.000;2023-05-07T14:20:04;21.10;99.90
6260;DHT22;3163;51.516;4.000;2023-05-07T14:22:31;21.10;99.90
6260;DHT22;3163;51.516;4.000;2023-05-07T14:24:57;21.10;99.90
6260;DHT22;3163;51.516;4.000;2023-05-07T14:27:22;20.80;99.90
6260;DHT22;3163;51.516;4.000;2023-05-07T14:29:48;20.70;99.90
6260;DHT22;3163;51.516;4.000;2023-05-07T14:32:17;20.80;99.90
6260;DHT22;3163;51.516;4.000;2023-05-07T14:34:43;20.90;99.90
6260;DHT22;3163;51.516;4.000;2023-05-07T14:37:09;21.00;99.90
6260;DHT22;3163;51.516;4.000;2023-05-07T14:39:35;21.00;99.90
6260;DHT22;3163;51.516;4.000;2023-05-07T14:42:00;21.00;99.90
6260;DHT22;3163;51.516;4.000;2023-05-07T14:44:26;21.00;99.90
6260;DHT22;3163;51.516;4.000;2023-05-07T14:46:51;21.00;99.90
6260;DHT22;3163;51.516;4.000;2023-05-07T14:49:17;21.00;99.90
6260;DHT22;3163;51.516;4.000;2023-05-07T14:51:46;20.50;99.90
6260;DHT22;3163;51.516;4.000;2023-05-07T14:54:13;20.30;99.90
6260;DHT22;3163;51.516;4.000;2023-05-07T14:56:40;20.40;99.90
6260;DHT22;3163;51.516;4.000;2023-05-07T14:59:06;19.50;99.90
6260;DHT22;3163;51.516;4.000;2023-05-07T15:01:34;19.00;99.90
6260;DHT22;3163;51.516;4.000;2023-05-07T15:03:59;18.80;99.90
6260;DHT22;3163;51.516;4.000;2023-05-07T15:06:25;18.30;99.90
6260;DHT22;3163;51.516;4.000;2023-05-07T15:08:52;18.60;99.90
6260;DHT22;3163;51.516;4.000;2023-05-07T15:11:17;18.80;99.90
6260;DHT22;3163;51.516;4.000;2023-05-07T15:13:43;18.20;99.90
6260;DHT22;3163;51.516;4.000;2023-05-07T15:16:08;18.50;99.90
6260;DHT22;3163;51.516;4.000;2023-05-07T15:18:34;18.80;99.90
6260;DHT22;3163;51.516;4.000;2023-05-07T15:21:00;19.10;99.90
6260;DHT22;3163;51.516;4.000;2023-05-07T15:23:25;19.00;99.90
6260;DHT22;3163;51.516;4.000;2023-05-07T15:25:52;19.10;99.90
6260;DHT22;3163;51.516;4.000;2023-05-07T15:28:17;19.20;99.90
6260;DHT22;3163;51.516;4.000;2023-05-07T15:30:43;18.60;99.90
6260;DHT22;3163;51.516;4.000;2023-05-07T15:33:09;18.70;99.90
6260;DHT22;3163;51.516;4.000;2023-05-07T15:35:35;19.20;99.90
6260;DHT22;3163;51.516;4.000;2023-05-07T15:38:00;19.30;99.90
6260;DHT22;3163;51.516;4.000;2023-05-07T15:40:28;19.00;99.90
6260;DHT22;3163;51.516;4.000;2023-05-07T15:42:54;19.10;99.90
6260;DHT22;3163;51.516;4.000;2023-05-07T15:45:21;19.10;99.90
6260;DHT22;3163;51.516;4.000;2023-05-07T15:47:47;19.20;99.90
6260;DHT22;3163;51.516;4.000;2023-05-07T15:50:12;19.30;99.90
6260;DHT22;3163;51.516;4.000;2023-05-07T15:52:38;19.10;99.90
6260;DHT22;3163;51.516;4.000;2023-05-07T15:55:05;19.10;99.90
6260;DHT22;3163;51.516;4.000;2023-05-07T15:57:31;19.20;99.90
6260;DHT22;3163;51.516;4.000;2023-05-07T15:59:57;19.30;99.90
6260;DHT22;3163;51.516;4.000;2023-05-07T16:02:23;19.20;99.90
6260;DHT22;3163;51.516;4.000;2023-05-07T16:04:49;19.20;99.90
6260;DHT22;3163;51.516;4.000;2023-05-07T16:07:14;18.90;99.90
6260;DHT22;3163;51.516;4.000;2023-05-07T16:09:40;18.70;99.90
6260;DHT22;3163;51.516;4.000;2023-05-07T16:12:06;19.00;99.90